createdAt,value
2023-03-22T00:01:23.492Z,54.32
2023-03-22T00:03:52.472Z,54.68
2023-03-22T00:06:19.955Z,54.84
2023-03-22T00:08:51.217Z,54.77
2023-03-22T00:11:20.008Z,54.77
2023-03-22T00:13:47.220Z,55.07
2023-03-22T00:16:15.626Z,55.40
2023-03-22T00:18:42.812Z,55.09
2023-03-22T00:21:15.774Z,55.08
2023-03-22T00:23:44.128Z,55.28
2023-03-22T00:26:13.571Z,55.35
2023-03-22T00:28:42.388Z,55.28
2023-03-22T00:31:10.742Z,55.13
2023-03-22T00:33:38.320Z,55.29
2023-03-22T00:36:12.004Z,54.91
2023-03-22T00:38:42.923Z,54.88
2023-03-22T00:41:14.988Z,54.82
2023-03-22T00:43:46.083Z,54.65
2023-03-22T00:46:14.502Z,54.87
2023-03-22T00:48:41.928Z,54.64
2023-03-22T00:51:10.314Z,54.83
2023-03-22T00:53:42.350Z,55.15
2023-03-22T00:56:14.197Z,55.72
2023-03-22T00:58:45.950Z,55.31
2023-03-22T01:01:14.085Z,55.17
2023-03-22T01:03:42.821Z,54.93
2023-03-22T01:06:11.777Z,55.15
2023-03-22T01:08:39.220Z,54.97
2023-03-22T01:11:08.625Z,54.92
2023-03-22T01:13:41.667Z,55.16
2023-03-22T01:16:10.250Z,55.50
2023-03-22T01:18:37.550Z,55.51
2023-03-22T01:21:06.073Z,55.51
2023-03-22T01:23:33.103Z,55.84
2023-03-22T01:26:01.394Z,56.08
2023-03-22T01:28:29.560Z,56.11
2023-03-22T01:30:58.170Z,56.06
2023-03-22T01:33:25.171Z,56.36
2023-03-22T01:35:53.000Z,56.62
2023-03-22T01:38:21.675Z,56.71
2023-03-22T01:40:57.173Z,56.47
2023-03-22T01:43:24.596Z,56.57
2023-03-22T01:45:54.240Z,56.69
2023-03-22T01:48:42.181Z,56.62
2023-03-22T01:51:14.383Z,56.20
2023-03-22T01:54:11.114Z,56.21
2023-03-22T01:56:41.521Z,56.22
2023-03-22T01:59:15.539Z,56.55
2023-03-22T02:02:02.958Z,56.72
2023-03-22T02:04:39.026Z,56.58
2023-03-22T02:07:15.609Z,56.90
2023-03-22T02:09:46.588Z,57.10
2023-03-22T02:12:36.118Z,57.46
2023-03-22T02:15:36.851Z,57.67
2023-03-22T02:19:14.118Z,58.07
2023-03-22T02:22:01.589Z,58.09
2023-03-22T02:24:39.254Z,58.11
2023-03-22T02:27:23.069Z,57.98
2023-03-22T02:30:56.434Z,57.90
2023-03-22T02:33:23.444Z,58.01
2023-03-22T02:36:16.834Z,58.26
2023-03-22T02:39:17.186Z,58.01
2023-03-22T02:42:21.729Z,58.00
2023-03-22T02:45:29.142Z,57.90
2023-03-22T02:48:09.923Z,58.20
2023-03-22T02:50:57.475Z,58.24
2023-03-22T02:53:29.807Z,58.38
2023-03-22T02:56:41.166Z,58.26
2023-03-22T02:59:11.649Z,58.25
2023-03-22T03:01:44.297Z,58.28
2023-03-22T03:04:18.007Z,58.26
2023-03-22T03:06:49.023Z,57.77
2023-03-22T03:09:18.248Z,57.57
2023-03-22T03:11:52.527Z,57.77
2023-03-22T03:14:30.912Z,57.73
2023-03-22T03:17:44.895Z,57.69
2023-03-22T03:21:03.902Z,57.67
2023-03-22T03:24:00.635Z,57.70
2023-03-22T03:26:44.931Z,57.67
2023-03-22T03:29:41.921Z,57.88
2023-03-22T03:32:37.605Z,57.53
2023-03-22T03:35:37.692Z,57.09
2023-03-22T03:38:12.383Z,56.82
2023-03-22T03:40:47.812Z,56.63
2023-03-22T03:43:16.085Z,56.07
2023-03-22T03:45:43.369Z,55.80
2023-03-22T03:48:21.517Z,55.43
2023-03-22T03:50:53.028Z,55.19
2023-03-22T03:53:20.668Z,55.09
2023-03-22T03:55:48.110Z,54.82
2023-03-22T03:58:19.029Z,54.48
2023-03-22T04:00:50.967Z,54.46
2023-03-22T04:03:44.218Z,54.43
2023-03-22T04:06:43.847Z,54.27
2023-03-22T04:09:17.091Z,54.21
2023-03-22T04:11:48.004Z,54.06
2023-03-22T04:14:16.153Z,54.10
2023-03-22T04:16:46.927Z,53.81
2023-03-22T04:19:18.660Z,53.73
2023-03-22T04:21:46.130Z,53.57
2023-03-22T04:24:14.109Z,53.57
2023-03-22T04:26:43.174Z,53.36
2023-03-22T04:29:39.191Z,53.52
2023-03-22T04:32:24.513Z,53.45
2023-03-22T04:34:53.560Z,53.05
2023-03-22T04:37:24.575Z,53.24
2023-03-22T04:40:16.655Z,53.32
2023-03-22T04:42:57.616Z,53.32
2023-03-22T04:45:42.167Z,53.04
2023-03-22T04:48:11.270Z,53.05
2023-03-22T04:50:40.490Z,53.18
2023-03-22T04:53:08.376Z,53.01
2023-03-22T04:55:35.462Z,53.29
2023-03-22T04:58:02.705Z,53.09
2023-03-22T05:00:30.627Z,53.26
2023-03-22T05:02:59.389Z,53.45
2023-03-22T05:05:33.282Z,53.14
2023-03-22T05:08:02.636Z,52.98
2023-03-22T05:10:29.889Z,53.17
2023-03-22T05:12:58.302Z,53.25
2023-03-22T05:15:32.973Z,53.32
2023-03-22T05:18:02.586Z,53.05
2023-03-22T05:20:29.716Z,52.81
2023-03-22T05:23:19.306Z,52.77
2023-03-22T05:25:54.265Z,52.70
2023-03-22T05:28:27.302Z,52.42
2023-03-22T05:31:10.037Z,52.08
2023-03-22T05:33:50.575Z,51.89
2023-03-22T05:36:22.992Z,51.52
2023-03-22T05:39:15.970Z,51.18
2023-03-22T05:41:45.003Z,51.02
2023-03-22T05:44:12.498Z,50.64
2023-03-22T05:46:46.402Z,50.52
2023-03-22T05:49:32.464Z,50.04
2023-03-22T05:52:04.344Z,49.93
2023-03-22T05:54:45.686Z,49.94
2023-03-22T05:57:13.369Z,49.76
2023-03-22T05:59:41.524Z,49.79
2023-03-22T06:02:12.536Z,49.67
2023-03-22T06:04:41.653Z,48.80
2023-03-22T06:07:14.556Z,48.92
2023-03-22T06:09:52.787Z,49.23
2023-03-22T06:12:24.869Z,49.02
2023-03-22T06:15:05.943Z,48.67
2023-03-22T06:17:36.170Z,48.03
2023-03-22T06:20:11.636Z,47.46
2023-03-22T06:22:41.897Z,47.48
2023-03-22T06:25:10.580Z,47.66
2023-03-22T06:27:42.437Z,47.97
2023-03-22T06:30:10.434Z,47.61
2023-03-22T06:32:59.175Z,47.24
2023-03-22T06:35:27.608Z,47.12
2023-03-22T06:37:54.954Z,46.42
2023-03-22T06:40:22.117Z,46.84
2023-03-22T06:42:49.604Z,46.54
2023-03-22T06:45:19.120Z,47.14
2023-03-22T06:47:46.704Z,47.41
2023-03-22T06:50:24.445Z,47.57
2023-03-22T06:53:03.455Z,47.60
2023-03-22T06:55:34.562Z,47.46
2023-03-22T06:58:11.191Z,47.48
2023-03-22T07:00:39.394Z,47.35
2023-03-22T07:03:07.919Z,47.74
2023-03-22T07:05:44.507Z,47.19
2023-03-22T07:08:12.115Z,47.48
2023-03-22T07:10:51.172Z,47.13
2023-03-22T07:13:21.067Z,46.66
2023-03-22T07:15:49.756Z,46.97
2023-03-22T07:18:56.002Z,46.82
2023-03-22T07:21:23.823Z,46.72
2023-03-22T07:23:56.185Z,46.79
2023-03-22T07:26:26.474Z,46.99
2023-03-22T07:28:56.533Z,46.87
2023-03-22T07:31:29.227Z,47.24
2023-03-22T07:34:00.493Z,47.27
2023-03-22T07:36:30.456Z,47.48
2023-03-22T07:38:58.254Z,47.67
2023-03-22T07:41:30.687Z,46.77
2023-03-22T07:44:33.220Z,47.31
2023-03-22T07:47:40.089Z,46.85
2023-03-22T07:50:35.034Z,46.00
2023-03-22T07:53:05.169Z,45.78
2023-03-22T07:55:32.267Z,44.84
2023-03-22T07:57:59.415Z,44.64
2023-03-22T08:00:27.127Z,44.80
2023-03-22T08:03:14.351Z,44.89
2023-03-22T08:06:07.748Z,44.89
2023-03-22T08:08:37.016Z,43.88
2023-03-22T08:11:08.612Z,42.21
2023-03-22T08:13:36.368Z,41.24
2023-03-22T08:16:04.857Z,40.34
2023-03-22T08:18:32.720Z,39.41
2023-03-22T08:21:00.998Z,39.74
2023-03-22T08:23:41.354Z,38.88
2023-03-22T08:26:14.922Z,39.15
2023-03-22T08:28:43.324Z,38.92
2023-03-22T08:31:17.083Z,39.10
2023-03-22T08:33:46.469Z,38.94
2023-03-22T08:36:17.600Z,37.96
2023-03-22T08:38:50.587Z,37.22
2023-03-22T08:41:23.576Z,38.07
2023-03-22T08:43:51.164Z,37.50
2023-03-22T08:46:18.390Z,37.89
2023-03-22T08:48:50.548Z,37.02
2023-03-22T08:51:27.522Z,36.64
2023-03-22T08:54:07.055Z,36.26
2023-03-22T08:56:52.567Z,36.30
2023-03-22T08:59:57.801Z,36.61
2023-03-22T09:02:44.125Z,36.46
2023-03-22T09:05:14.280Z,36.06
2023-03-22T09:07:42.967Z,35.83
2023-03-22T09:10:19.570Z,35.02
2023-03-22T09:12:49.455Z,35.02
2023-03-22T09:15:26.138Z,34.56
2023-03-22T09:18:24.445Z,34.23
2023-03-22T09:20:53.292Z,34.34
2023-03-22T09:23:24.941Z,33.98
2023-03-22T09:25:52.914Z,34.22
2023-03-22T09:28:24.454Z,34.89
2023-03-22T09:31:01.442Z,34.64
2023-03-22T09:33:29.833Z,34.74
2023-03-22T09:35:58.003Z,34.69
2023-03-22T09:38:27.233Z,34.58
2023-03-22T09:41:02.781Z,34.94
2023-03-22T09:43:40.916Z,34.45
2023-03-22T09:46:24.119Z,34.24
2023-03-22T09:48:55.326Z,34.40
2023-03-22T09:51:37.454Z,34.51
2023-03-22T09:54:12.714Z,35.11
2023-03-22T09:56:41.141Z,36.04
2023-03-22T09:59:13.859Z,36.60
2023-03-22T10:02:31.517Z,36.12
2023-03-22T10:05:28.496Z,35.14
2023-03-22T10:08:30.432Z,36.11
2023-03-22T10:10:59.829Z,35.72
2023-03-22T10:13:45.905Z,36.07
2023-03-22T10:16:27.493Z,35.94
2023-03-22T10:19:05.578Z,35.63
2023-03-22T10:21:33.860Z,35.55
2023-03-22T10:24:17.036Z,35.16
2023-03-22T10:26:47.883Z,34.61
2023-03-22T10:29:27.284Z,34.99
2023-03-22T10:31:55.179Z,35.35
2023-03-22T10:34:29.333Z,34.76
2023-03-22T10:36:57.111Z,34.07
2023-03-22T10:39:42.275Z,33.85
2023-03-22T10:42:16.733Z,33.48
2023-03-22T10:44:56.008Z,33.86
2023-03-22T10:47:34.923Z,34.11
2023-03-22T10:50:08.965Z,34.54
2023-03-22T10:52:52.834Z,34.41
2023-03-22T10:55:20.059Z,34.83
2023-03-22T10:58:08.738Z,34.66
2023-03-22T11:00:38.433Z,34.05
2023-03-22T11:03:07.824Z,34.38
2023-03-22T11:05:35.033Z,34.70
2023-03-22T11:08:03.613Z,35.23
2023-03-22T11:10:33.272Z,35.06
2023-03-22T11:13:09.724Z,34.58
2023-03-22T11:15:41.788Z,34.59
2023-03-22T11:18:15.808Z,34.45
2023-03-22T11:20:55.793Z,34.14
2023-03-22T11:23:24.559Z,34.31
2023-03-22T11:25:56.462Z,33.44
2023-03-22T11:28:35.967Z,33.60
2023-03-22T11:31:13.053Z,33.85
2023-03-22T11:33:55.910Z,33.20
2023-03-22T11:36:23.293Z,32.05
2023-03-22T11:39:02.419Z,31.16
2023-03-22T11:41:38.731Z,30.51
2023-03-22T11:44:12.970Z,29.04
2023-03-22T11:46:49.200Z,27.80
2023-03-22T11:49:18.256Z,27.63
2023-03-22T11:51:45.716Z,26.58
2023-03-22T11:54:26.443Z,25.95
2023-03-22T11:57:02.038Z,27.84
2023-03-22T11:59:38.768Z,26.44
2023-03-22T12:02:36.225Z,26.58
2023-03-22T12:05:17.245Z,25.37
2023-03-22T12:07:45.435Z,23.77
2023-03-22T12:10:32.326Z,23.38
2023-03-22T12:13:07.527Z,22.75
2023-03-22T12:15:47.434Z,21.97
2023-03-22T12:18:34.640Z,22.14
2023-03-22T12:21:02.313Z,23.75
2023-03-22T12:23:35.031Z,24.65
2023-03-22T12:26:12.727Z,25.08
2023-03-22T12:29:04.287Z,24.53
2023-03-22T12:31:37.695Z,24.75
2023-03-22T12:34:18.473Z,26.06
2023-03-22T12:36:53.663Z,25.30
2023-03-22T12:39:28.153Z,23.83
2023-03-22T12:42:03.984Z,23.06
2023-03-22T12:44:42.328Z,23.11
2023-03-22T12:47:26.387Z,23.81
2023-03-22T12:50:11.682Z,26.15
2023-03-22T12:52:57.142Z,26.62
2023-03-22T12:55:33.437Z,26.37
2023-03-22T12:58:02.006Z,25.59
2023-03-22T13:00:46.967Z,24.07
2023-03-22T13:03:21.151Z,24.97
2023-03-22T13:05:50.798Z,24.63
2023-03-22T13:08:22.997Z,24.16
2023-03-22T13:11:23.470Z,23.33
2023-03-22T13:13:50.730Z,24.17
2023-03-22T13:16:24.583Z,24.07
2023-03-22T13:18:58.505Z,23.71
2023-03-22T13:21:31.992Z,24.15
2023-03-22T13:24:15.498Z,24.73
2023-03-22T13:26:59.166Z,24.58
2023-03-22T13:29:39.039Z,25.41
2023-03-22T13:32:30.098Z,25.68
2023-03-22T13:34:57.565Z,25.99
2023-03-22T13:37:45.962Z,25.88
2023-03-22T13:40:39.624Z,25.99
2023-03-22T13:43:32.167Z,25.34
2023-03-22T13:46:05.014Z,25.81
2023-03-22T13:49:00.386Z,26.69
2023-03-22T13:51:34.442Z,26.84
2023-03-22T13:54:16.542Z,26.65
2023-03-22T13:56:57.312Z,27.18
2023-03-22T13:59:30.393Z,27.13
2023-03-22T14:02:19.719Z,27.25
2023-03-22T14:04:53.232Z,27.26
2023-03-22T14:07:36.998Z,27.36
2023-03-22T14:10:13.212Z,28.11
2023-03-22T14:12:54.956Z,28.23
2023-03-22T14:15:28.794Z,28.32
2023-03-22T14:18:02.742Z,28.21
2023-03-22T14:20:37.180Z,27.80
